METAR Data
IDs: Format: Raw Decoded Include TAF

Data at: 0946 UTC 10 Dec 2022

KRTS 100935Z AUTO 24009G17KT 10SM FEW055 BKN110 04/M07 A2988 RMK AO2
KRTS 100915Z AUTO 22013G20KT 10SM OVC110 04/M07 A2988 RMK AO2
KRTS 100855Z AUTO 22013G19KT 10SM BKN095 OVC120 04/M07 A2988 RMK AO2
KRTS 100835Z AUTO VRB04G10KT 10SM BKN080 OVC095 04/M08 A2989 RMK AO2
KRTS 100815Z AUTO 33008KT 10SM SCT070 BKN080 OVC090 04/M07 A2988 RMK AO2
KRTS 100755Z AUTO 02010KT 10SM FEW055 OVC065 04/M07 A2989 RMK AO2
KRTS 100735Z AUTO 23010G16KT 160V280 10SM BKN060 OVC065 04/M07 A2991 RMK AO2
KRTS 100715Z AUTO 00000G14KT 10SM OVC055 04/M07 A2992 RMK AO2
KRTS 100655Z AUTO 24009G15KT 210V280 10SM OVC050 04/M07 A2993 RMK AO2
KRTS 100635Z AUTO 16006G20KT 10SM OVC047 04/M06 A2992 RMK AO2
KRTS 100615Z AUTO 15019G31KT 10SM BKN050 OVC060 04/M07 A2992 RMK AO2
KRTS 100555Z AUTO 21024G32KT 10SM BKN050 BKN070 OVC085 05/M08 A2993 RMK AO2
KRTS 100535Z AUTO 21011KT 10SM FEW055 BKN070 OVC085 05/M09 A2994 RMK AO2
KRTS 100515Z AUTO 20009G15KT 10SM BKN055 OVC070 04/M09 A2994 RMK AO2
KRTS 100455Z AUTO 22016G21KT 10SM BKN060 OVC075 05/M09 A2994 RMK AO2
KRTS 100435Z AUTO 22015KT 10SM BKN070 BKN080 04/M10 A2994 RMK AO2
KRTS 100415Z AUTO 24020G26KT 10SM SCT070 BKN100 05/M10 A2993 RMK AO2
KRTS 100355Z AUTO 18023G28KT 10SM BKN100 OVC120 05/M10 A2994 RMK AO2